Time;durP1;ratioP1;P1;durP2;ratioP2;P2;SDS_P1;SDS_P2;PMS_P1;PMS_P2;Temp;Humidity;BMP_temperature;BMP_pressure;BME280_temperature;BME280_humidity;BME280_pressure;Samples;Min_cycle;Max_cycle;Signal;HPM_P1;HPM_P2
2021/03/17 00:02:21;;;;;;;7.30;3.80;;;0.40;99.90;;;;;;5079153;28;20044;-82
2021/03/17 00:05:51;;;;;;;3.42;3.13;;;0.30;99.90;;;;;;5071832;28;20047;-84
2021/03/17 00:08:39;;;;;;;2.83;2.40;;;0.30;99.90;;;;;;5072320;28;20051;-85
2021/03/17 00:11:27;;;;;;;2.67;2.17;;;0.30;99.90;;;;;;5072034;28;20056;-84
2021/03/17 00:14:21;;;;;;;1.92;1.83;;;0.30;99.90;;;;;;5071891;28;20053;-84
2021/03/17 00:17:15;;;;;;;4.95;3.40;;;0.40;99.90;;;;;;5054259;28;20071;-86
2021/03/17 00:20:01;;;;;;;2.55;2.15;;;0.40;99.90;;;;;;5073860;28;20406;-80
2021/03/17 00:22:47;;;;;;;3.20;2.92;;;0.30;99.90;;;;;;5091251;28;20059;-80
2021/03/17 00:25:36;;;;;;;2.83;2.63;;;0.40;99.90;;;;;;5090169;28;20036;-80
2021/03/17 00:28:26;;;;;;;2.33;1.83;;;0.20;99.90;;;;;;5085645;28;20499;-81
2021/03/17 00:31:12;;;;;;;5.00;2.20;;;0.20;99.90;;;;;;5054307;28;20506;-80
2021/03/17 00:33:58;;;;;;;3.55;2.38;;;0.20;99.90;;;;;;5038838;28;20059;-80
2021/03/17 00:36:44;;;;;;;3.17;2.97;;;0.20;99.90;;;;;;5051394;28;20037;-81
2021/03/17 00:39:30;;;;;;;2.35;2.10;;;0.20;99.90;;;;;;5051215;28;20403;-80
2021/03/17 00:42:16;;;;;;;2.97;2.20;;;0.20;99.90;;;;;;5051602;28;20045;-80
2021/03/17 00:45:04;;;;;;;3.72;3.25;;;0.20;99.90;;;;;;5050814;28;20052;-81
2021/03/17 00:47:50;;;;;;;2.70;2.45;;;0.20;99.90;;;;;;5037545;28;20042;-80
2021/03/17 00:50:20;;;;;;;3.10;2.90;;;0.20;99.90;;;;;;5054197;28;20049;-81
2021/03/17 00:52:56;;;;;;;3.95;3.63;;;0.20;99.90;;;;;;5038409;28;20041;-81
2021/03/17 00:55:29;;;;;;;3.42;2.63;;;0.20;99.90;;;;;;5038744;28;20049;-81
2021/03/17 00:58:10;;;;;;;3.00;2.70;;;0.20;99.90;;;;;;5023523;28;20068;-80
2021/03/17 01:00:38;;;;;;;7.43;2.72;;;0.20;99.90;;;;;;5054042;28;20051;-81
2021/03/17 01:03:05;;;;;;;5.68;3.17;;;0.20;99.90;;;;;;5067533;28;20049;-80
2021/03/17 01:05:33;;;;;;;4.55;3.00;;;0.20;99.90;;;;;;5051921;28;20703;-81
2021/03/17 01:08:01;;;;;;;4.80;4.25;;;0.20;99.90;;;;;;5051382;28;20041;-81
2021/03/17 01:10:41;;;;;;;4.20;3.25;;;0.20;99.90;;;;;;5052450;28;20768;-80
2021/03/17 01:13:09;;;;;;;3.20;2.95;;;0.20;99.90;;;;;;5055082;28;20037;-80
2021/03/17 01:15:37;;;;;;;4.40;3.75;;;0.20;99.90;;;;;;5055204;28;20048;-80
2021/03/17 01:18:06;;;;;;;8.32;3.38;;;0.30;99.90;;;;;;5038304;28;20048;-80
2021/03/17 01:20:34;;;;;;;4.28;3.47;;;0.20;99.90;;;;;;5055693;28;20071;-80
2021/03/17 01:23:04;;;;;;;3.92;3.45;;;0.30;99.90;;;;;;5068740;28;20052;-80
2021/03/17 01:25:38;;;;;;;5.65;3.88;;;0.30;99.90;;;;;;5074781;28;20036;-81
2021/03/17 01:28:09;;;;;;;4.82;4.10;;;0.40;99.90;;;;;;5075508;28;20560;-81
2021/03/17 01:30:37;;;;;;;6.22;4.32;;;0.30;99.90;;;;;;5075934;28;20128;-80
2021/03/17 01:33:13;;;;;;;6.50;4.88;;;0.30;99.90;;;;;;5070595;28;20041;-80
2021/03/17 01:35:42;;;;;;;4.72;3.78;;;0.20;99.90;;;;;;5054809;28;20048;-80
2021/03/17 01:38:10;;;;;;;4.18;3.88;;;0.30;99.90;;;;;;5055092;28;20049;-80
2021/03/17 01:40:40;;;;;;;4.85;4.45;;;0.30;99.90;;;;;;5055053;28;20045;-81
2021/03/17 01:43:08;;;;;;;4.22;3.80;;;0.30;99.90;;;;;;5037970;28;20060;-80
2021/03/17 01:45:36;;;;;;;4.35;3.67;;;0.30;99.90;;;;;;5037534;28;20483;-81
2021/03/17 01:48:05;;;;;;;4.43;3.75;;;0.20;99.90;;;;;;5054151;28;20041;-80
2021/03/17 01:50:36;;;;;;;3.45;3.15;;;0.20;99.90;;;;;;5055366;28;20395;-80
2021/03/17 01:53:16;;;;;;;3.80;3.50;;;0.20;99.90;;;;;;5054360;28;20067;-81
2021/03/17 01:55:45;;;;;;;4.30;2.83;;;0.20;99.90;;;;;;5054069;28;20049;-84
2021/03/17 01:58:13;;;;;;;4.30;3.00;;;0.20;99.90;;;;;;5075790;28;20060;-82
2021/03/17 02:00:41;;;;;;;2.88;2.45;;;0.20;99.90;;;;;;5057112;28;20041;-81
2021/03/17 02:03:12;;;;;;;3.50;2.80;;;0.20;99.90;;;;;;5049244;28;20053;-83
2021/03/17 02:05:47;;;;;;;2.97;2.63;;;0.30;99.90;;;;;;5035031;28;20052;-81
2021/03/17 02:08:24;;;;;;;2.85;2.65;;;0.20;99.90;;;;;;5046572;28;20411;-82
2021/03/17 02:10:52;;;;;;;2.80;2.60;;;0.20;99.90;;;;;;5057302;28;20475;-82
2021/03/17 02:13:45;;;;;;;2.05;1.92;;;0.10;99.90;;;;;;5056893;28;20494;-82
2021/03/17 02:16:16;;;;;;;2.42;2.05;;;0.10;99.90;;;;;;5074796;28;20045;-80
2021/03/17 02:18:52;;;;;;;2.30;2.20;;;0.10;99.90;;;;;;5056785;28;20479;-80
2021/03/17 02:21:58;;;;;;;11.40;2.88;;;0.10;99.90;;;;;;5056628;28;20048;-80
2021/03/17 02:24:38;;;;;;;2.33;2.13;;;0.10;99.90;;;;;;5055982;28;20044;-80
2021/03/17 02:27:55;;;;;;;2.83;2.60;;;0.10;99.90;;;;;;5057287;28;20048;-80
2021/03/17 02:30:59;;;;;;;2.92;2.72;;;0.20;99.90;;;;;;5008757;28;20049;-80
2021/03/17 02:33:41;;;;;;;2.58;2.38;;;0.20;99.90;;;;;;5036373;28;20037;-80
2021/03/17 02:36:13;;;;;;;2.85;2.53;;;0.20;99.90;;;;;;5053984;28;20041;-79
2021/03/17 02:38:51;;;;;;;2.60;2.38;;;0.20;99.90;;;;;;5053734;28;20053;-79
2021/03/17 02:41:28;;;;;;;2.17;2.03;;;0.30;99.90;;;;;;5071180;28;20045;-79
2021/03/17 02:43:58;;;;;;;2.53;2.33;;;0.20;99.90;;;;;;5055496;28;20048;-79
2021/03/17 02:46:28;;;;;;;2.20;2.00;;;0.10;99.90;;;;;;5056454;28;20499;-79
2021/03/17 02:49:01;;;;;;;3.30;3.10;;;0.10;99.90;;;;;;5039517;28;20522;-80
2021/03/17 02:51:40;;;;;;;2.30;2.10;;;0.00;99.90;;;;;;5072610;28;20052;-80
2021/03/17 02:54:11;;;;;;;2.85;2.47;;;0.00;99.90;;;;;;5039358;28;20431;-79
2021/03/17 02:57:05;;;;;;;3.03;2.83;;;0.00;99.90;;;;;;5021214;28;20052;-80
2021/03/17 02:59:34;;;;;;;2.70;2.50;;;0.00;99.90;;;;;;5013056;28;20048;-79
2021/03/17 03:02:03;;;;;;;3.65;3.35;;;0.10;99.90;;;;;;5015434;28;20056;-79
2021/03/17 03:04:32;;;;;;;4.25;3.17;;;0.10;99.90;;;;;;5048102;28;20049;-80
2021/03/17 03:07:02;;;;;;;3.17;2.72;;;0.10;99.90;;;;;;5053553;28;20064;-80
2021/03/17 03:09:29;;;;;;;3.50;3.22;;;0.10;99.90;;;;;;5052683;28;20045;-79
2021/03/17 03:11:59;;;;;;;3.13;2.92;;;0.10;99.90;;;;;;5052905;28;20050;-79
2021/03/17 03:14:28;;;;;;;3.60;3.30;;;0.10;99.90;;;;;;5053466;28;20408;-80
2021/03/17 03:17:01;;;;;;;3.35;3.00;;;0.10;99.90;;;;;;5034547;28;20037;-80
2021/03/17 03:19:38;;;;;;;3.20;2.95;;;0.10;99.90;;;;;;5052637;28;20060;-79
2021/03/17 03:22:07;;;;;;;2.90;2.60;;;0.00;99.90;;;;;;5053284;28;20483;-80
2021/03/17 03:24:36;;;;;;;3.53;3.22;;;0.10;99.90;;;;;;5054409;28;20040;-80
2021/03/17 03:27:04;;;;;;;3.20;2.92;;;0.10;99.90;;;;;;5056256;28;20045;-80
2021/03/17 03:29:34;;;;;;;4.20;3.70;;;0.10;99.90;;;;;;5034902;28;20060;-80
2021/03/17 03:32:05;;;;;;;3.35;3.05;;;0.20;99.90;;;;;;5034348;28;20114;-80
2021/03/17 03:34:33;;;;;;;3.60;3.28;;;0.10;99.90;;;;;;5035606;28;20064;-80
2021/03/17 03:37:01;;;;;;;4.00;3.03;;;0.10;99.90;;;;;;5051692;28;20048;-80
2021/03/17 03:39:28;;;;;;;4.47;4.07;;;0.10;99.90;;;;;;5053065;28;20049;-79
2021/03/17 03:41:56;;;;;;;4.05;3.65;;;0.10;99.90;;;;;;5053353;28;20052;-80
2021/03/17 03:44:23;;;;;;;3.92;3.53;;;0.10;99.90;;;;;;5034585;28;20392;-80
2021/03/17 03:46:51;;;;;;;8.38;4.15;;;0.10;99.90;;;;;;5053133;28;20067;-80
2021/03/17 03:49:18;;;;;;;3.72;3.28;;;0.10;99.90;;;;;;5051883;28;20045;-83
2021/03/17 03:52:13;;;;;;;4.25;3.55;;;0.10;99.90;;;;;;5007500;28;20148;-80
2021/03/17 03:54:54;;;;;;;4.55;3.80;;;0.10;99.90;;;;;;5054431;28;20067;-80
2021/03/17 03:57:32;;;;;;;7.43;3.85;;;0.20;99.90;;;;;;5071697;28;20052;-80
2021/03/17 04:00:07;;;;;;;3.45;3.15;;;0.10;99.90;;;;;;5071831;28;20394;-80
2021/03/17 04:02:43;;;;;;;4.43;3.80;;;0.10;99.90;;;;;;5072360;28;20059;-80
2021/03/17 04:05:32;;;;;;;5.28;4.78;;;0.20;99.90;;;;;;5056903;28;20049;-80
2021/03/17 04:08:08;;;;;;;3.70;3.10;;;0.10;99.90;;;;;;5052268;28;20651;-80
2021/03/17 04:10:38;;;;;;;4.18;3.83;;;0.10;99.90;;;;;;5035124;28;20372;-80
2021/03/17 04:13:08;;;;;;;4.70;3.83;;;0.10;99.90;;;;;;5050841;28;20044;-80
2021/03/17 04:15:38;;;;;;;6.90;3.85;;;0.00;99.90;;;;;;5053952;28;20059;-80
2021/03/17 04:18:12;;;;;;;6.05;4.30;;;0.10;99.90;;;;;;5037949;28;20056;-80
2021/03/17 04:20:43;;;;;;;4.70;4.28;;;0.10;99.90;;;;;;5053042;28;20414;-80
2021/03/17 04:23:12;;;;;;;5.50;4.80;;;0.10;99.90;;;;;;5071650;28;20059;-80
2021/03/17 04:25:45;;;;;;;4.32;3.90;;;0.20;99.90;;;;;;5072166;28;20834;-80
2021/03/17 04:28:18;;;;;;;5.65;5.03;;;0.20;99.90;;;;;;5068746;28;20049;-80
2021/03/17 04:30:47;;;;;;;5.32;4.68;;;0.20;99.90;;;;;;5052237;28;20068;-80
2021/03/17 04:33:15;;;;;;;4.80;4.30;;;0.20;99.90;;;;;;5049664;28;20795;-81
2021/03/17 04:35:44;;;;;;;7.13;5.80;;;0.20;99.90;;;;;;5071524;28;20048;-80
2021/03/17 04:38:14;;;;;;;5.95;4.40;;;0.30;99.90;;;;;;5054889;28;20514;-80
2021/03/17 04:40:43;;;;;;;6.90;5.38;;;0.20;99.90;;;;;;5037916;28;20048;-80
2021/03/17 04:43:12;;;;;;;6.63;4.90;;;0.30;99.90;;;;;;5071486;28;20044;-80
2021/03/17 04:45:40;;;;;;;6.75;5.70;;;0.30;99.90;;;;;;5053933;28;20040;-81
2021/03/17 04:48:08;;;;;;;8.95;6.47;;;0.20;99.90;;;;;;5071094;28;20043;-81
2021/03/17 04:50:39;;;;;;;6.72;6.07;;;0.30;99.90;;;;;;5091771;28;20509;-80
2021/03/17 04:53:11;;;;;;;5.80;5.15;;;0.20;99.90;;;;;;5091231;28;20403;-80
2021/03/17 04:55:38;;;;;;;8.15;6.95;;;0.30;99.90;;;;;;5091097;28;20784;-80
2021/03/17 04:58:19;;;;;;;9.43;5.75;;;0.20;99.90;;;;;;5057519;28;20059;-80
2021/03/17 05:00:49;;;;;;;9.57;7.03;;;0.20;99.90;;;;;;5084850;28;20048;-81
2021/03/17 05:03:30;;;;;;;9.43;5.95;;;0.20;99.90;;;;;;5069868;28;20063;-80
2021/03/17 05:05:58;;;;;;;8.90;6.80;;;0.30;99.90;;;;;;5052894;28;20044;-81
2021/03/17 05:08:30;;;;;;;9.82;7.43;;;0.20;99.90;;;;;;5070963;28;20043;-80
2021/03/17 05:10:59;;;;;;;9.98;6.63;;;0.20;99.90;;;;;;5075982;28;20135;-81
2021/03/17 05:13:27;;;;;;;9.00;6.65;;;0.20;99.90;;;;;;5091913;28;20059;-81
2021/03/17 05:15:56;;;;;;;10.18;8.88;;;0.20;99.90;;;;;;5092099;28;20044;-81
2021/03/17 05:18:25;;;;;;;9.43;7.88;;;0.20;99.90;;;;;;5070982;28;20060;-81
2021/03/17 05:20:53;;;;;;;10.80;8.95;;;0.20;99.90;;;;;;5050971;28;20044;-81
2021/03/17 05:23:21;;;;;;;10.93;8.52;;;0.20;99.90;;;;;;5051381;28;20049;-81
2021/03/17 05:25:49;;;;;;;11.20;8.70;;;0.20;99.90;;;;;;5052003;28;20049;-81
2021/03/17 05:28:19;;;;;;;9.07;8.00;;;0.20;99.90;;;;;;5051631;28;20034;-82
2021/03/17 05:30:49;;;;;;;11.07;7.65;;;0.20;99.90;;;;;;5034173;28;20053;-81
2021/03/17 05:33:17;;;;;;;10.25;7.20;;;0.20;99.90;;;;;;5081750;28;20045;-82
2021/03/17 05:35:44;;;;;;;12.02;9.13;;;0.20;99.90;;;;;;5071442;28;20037;-82
2021/03/17 05:38:12;;;;;;;11.93;9.98;;;0.30;99.90;;;;;;5072076;28;20075;-81
2021/03/17 05:40:39;;;;;;;11.80;8.50;;;0.10;99.90;;;;;;5071529;28;20041;-81
2021/03/17 05:43:08;;;;;;;12.30;8.02;;;0.20;99.90;;;;;;5072097;28;20451;-81
2021/03/17 05:45:39;;;;;;;13.45;9.40;;;0.20;99.90;;;;;;5077630;28;20044;-82
2021/03/17 05:48:11;;;;;;;12.75;9.18;;;0.10;99.90;;;;;;5090400;28;20510;-79
2021/03/17 05:50:39;;;;;;;14.32;11.13;;;0.10;99.90;;;;;;5087205;28;20048;-82
2021/03/17 05:53:08;;;;;;;12.13;8.70;;;0.10;99.90;;;;;;5083700;28;20044;-80
2021/03/17 05:55:37;;;;;;;14.50;9.85;;;0.00;99.90;;;;;;5090133;28;20066;-82
2021/03/17 05:58:04;;;;;;;14.73;9.38;;;0.10;99.90;;;;;;5092222;28;20055;-80
2021/03/17 06:00:32;;;;;;;16.02;11.43;;;0.10;99.90;;;;;;5088163;28;20044;-80
2021/03/17 06:03:06;;;;;;;14.30;11.73;;;0.10;99.90;;;;;;5040407;28;20056;-79
2021/03/17 06:05:34;;;;;;;17.80;11.68;;;0.20;99.90;;;;;;5072724;28;20040;-78
2021/03/17 06:08:13;;;;;;;22.75;11.43;;;0.20;99.90;;;;;;5078387;28;20051;-77
2021/03/17 06:10:42;;;;;;;17.50;10.63;;;0.30;99.90;;;;;;5094964;28;20056;-78
2021/03/17 06:13:11;;;;;;;15.00;11.48;;;0.30;99.90;;;;;;5091968;28;20052;-79
2021/03/17 06:15:45;;;;;;;18.40;12.07;;;0.50;99.90;;;;;;5074615;28;20052;-80
2021/03/17 06:18:33;;;;;;;17.85;13.25;;;0.60;99.90;;;;;;5055465;28;20491;-81
2021/03/17 06:21:02;;;;;;;17.40;12.68;;;0.70;99.90;;;;;;5036298;28;20099;-81
2021/03/17 06:23:30;;;;;;;17.02;12.90;;;0.70;99.80;;;;;;5053560;28;20056;-80
2021/03/17 06:25:58;;;;;;;16.40;11.55;;;0.60;99.90;;;;;;5091354;28;20115;-80
2021/03/17 06:28:28;;;;;;;15.38;11.23;;;0.50;99.90;;;;;;5085112;28;20043;-79
2021/03/17 06:30:57;;;;;;;14.25;9.82;;;0.60;99.90;;;;;;5074129;28;20044;-80
2021/03/17 06:33:26;;;;;;;15.98;11.80;;;0.50;99.90;;;;;;5067262;28;20056;-80
2021/03/17 06:36:18;;;;;;;18.55;10.23;;;0.50;99.90;;;;;;5054299;28;20036;-80
2021/03/17 06:38:47;;;;;;;15.27;10.75;;;0.50;99.90;;;;;;5053803;28;20060;-80
2021/03/17 06:41:17;;;;;;;14.45;10.70;;;0.50;99.80;;;;;;5068155;28;20443;-80
2021/03/17 06:43:46;;;;;;;14.73;10.82;;;0.50;99.90;;;;;;5073837;28;20506;-80
2021/03/17 06:46:16;;;;;;;15.43;10.80;;;0.80;99.70;;;;;;5075774;28;20572;-81
2021/03/17 06:48:57;;;;;;;19.02;11.20;;;0.90;99.10;;;;;;5072736;28;20483;-81
2021/03/17 06:51:28;;;;;;;18.80;11.88;;;0.90;99.00;;;;;;5061121;28;20060;-80
2021/03/17 06:54:00;;;;;;;20.00;14.20;;;1.00;98.90;;;;;;5045734;28;20060;-81
2021/03/17 06:56:29;;;;;;;17.70;10.95;;;1.20;98.40;;;;;;5085154;28;20055;-80
2021/03/17 06:58:57;;;;;;;14.57;12.05;;;1.00;98.40;;;;;;5076337;28;20639;-81
2021/03/17 07:01:26;;;;;;;16.05;12.48;;;1.10;98.00;;;;;;5093490;28;20043;-80
2021/03/17 07:04:25;;;;;;;17.80;11.48;;;1.10;98.40;;;;;;5055702;28;20044;-82
2021/03/17 07:07:02;;;;;;;18.10;13.23;;;0.80;98.00;;;;;;5062889;28;20056;-80
2021/03/17 07:09:31;;;;;;;14.20;11.00;;;0.60;99.20;;;;;;5074867;28;20063;-81
2021/03/17 07:12:10;;;;;;;21.85;13.75;;;0.70;99.30;;;;;;5078632;28;20508;-81
2021/03/17 07:14:39;;;;;;;20.05;12.13;;;0.40;99.30;;;;;;5056162;28;20049;-83
2021/03/17 07:17:30;;;;;;;19.83;12.70;;;0.40;98.80;;;;;;5075495;28;20042;-80
2021/03/17 07:19:58;;;;;;;16.45;11.10;;;0.40;99.10;;;;;;5019158;28;20041;-81
2021/03/17 07:22:26;;;;;;;13.88;9.70;;;0.40;99.10;;;;;;5053493;28;20056;-82
2021/03/17 07:24:59;;;;;;;16.20;10.70;;;0.60;98.40;;;;;;5075216;28;20051;-81
2021/03/17 07:27:28;;;;;;;14.18;9.98;;;0.60;98.20;;;;;;5073603;28;20056;-81
2021/03/17 07:30:02;;;;;;;11.95;9.75;;;0.70;98.30;;;;;;5071650;28;20056;-81
2021/03/17 07:33:12;;;;;;;15.27;10.15;;;0.70;97.90;;;;;;5051843;28;20041;-76
2021/03/17 07:35:39;;;;;;;15.35;10.05;;;0.80;98.00;;;;;;5052718;28;20052;-79
2021/03/17 07:38:09;;;;;;;15.27;10.27;;;0.70;98.40;;;;;;5076835;28;20052;-77
2021/03/17 07:40:43;;;;;;;13.77;9.63;;;0.80;97.80;;;;;;5064649;28;20044;-81
2021/03/17 07:43:11;;;;;;;17.30;11.02;;;0.60;98.40;;;;;;5087881;28;20063;-78
2021/03/17 07:45:40;;;;;;;13.70;10.20;;;0.60;98.10;;;;;;5034820;28;20045;-79
2021/03/17 07:48:11;;;;;;;16.35;12.98;;;0.60;98.80;;;;;;5019409;28;20037;-78
2021/03/17 07:50:41;;;;;;;;;;;0.60;98.80;;;;;;5032889;28;20058;-77
2021/03/17 07:53:32;;;;;;;21.10;13.48;;;0.50;98.30;;;;;;5031283;28;20359;-79
2021/03/17 07:56:01;;;;;;;15.80;11.25;;;0.50;98.90;;;;;;5033241;28;20061;-78
2021/03/17 07:58:31;;;;;;;14.80;9.80;;;0.70;98.80;;;;;;5052262;28;20076;-80
2021/03/17 08:00:58;;;;;;;19.10;14.25;;;0.60;98.50;;;;;;5010664;28;20395;-80
2021/03/17 08:03:29;;;;;;;18.50;13.82;;;0.60;98.30;;;;;;5032997;28;20053;-78
2021/03/17 08:06:01;;;;;;;17.17;13.18;;;0.70;98.10;;;;;;5052165;28;20045;-78
2021/03/17 08:08:29;;;;;;;20.95;14.32;;;0.70;98.70;;;;;;5050572;28;20037;-78
2021/03/17 08:10:57;;;;;;;21.50;15.48;;;0.80;97.60;;;;;;5051978;28;20057;-77
2021/03/17 08:13:25;;;;;;;31.30;15.27;;;0.80;97.70;;;;;;5048017;28;20037;-77
2021/03/17 08:15:53;;;;;;;21.75;14.90;;;0.80;97.50;;;;;;5050183;28;20052;-76
2021/03/17 08:18:30;;;;;;;20.08;13.70;;;0.80;98.10;;;;;;5058665;28;20056;-77
2021/03/17 08:21:02;;;;;;;18.52;13.00;;;0.80;97.30;;;;;;5049301;28;20045;-77
2021/03/17 08:23:51;;;;;;;19.42;12.75;;;0.90;96.90;;;;;;5028517;28;20427;-77
2021/03/17 08:26:24;;;;;;;12.80;9.35;;;1.00;96.70;;;;;;5049941;28;20053;-77
2021/03/17 08:28:56;;;;;;;15.85;10.75;;;1.30;95.80;;;;;;5033539;28;20037;-78
2021/03/17 08:31:36;;;;;;;18.40;12.45;;;1.40;95.50;;;;;;5052532;28;20053;-79
2021/03/17 08:34:20;;;;;;;18.30;12.43;;;1.50;95.10;;;;;;5032232;28;20054;-79
2021/03/17 08:36:48;;;;;;;16.40;11.93;;;1.60;94.20;;;;;;5031352;28;20415;-79
2021/03/17 08:39:34;;;;;;;19.60;11.57;;;1.60;94.10;;;;;;5032391;28;20049;-79
2021/03/17 08:42:02;;;;;;;18.52;13.13;;;1.60;93.80;;;;;;5033796;28;20048;-80
2021/03/17 08:44:42;;;;;;;16.02;9.93;;;1.60;94.70;;;;;;5051209;28;20407;-79
2021/03/17 08:47:29;;;;;;;12.32;9.85;;;1.90;93.50;;;;;;5051777;28;20053;-79
2021/03/17 08:50:22;;;;;;;14.80;10.23;;;2.10;93.70;;;;;;5026222;28;20043;-79
2021/03/17 08:52:51;;;;;;;12.73;10.63;;;1.90;93.10;;;;;;5046983;28;20048;-79
2021/03/17 08:55:22;;;;;;;16.05;12.07;;;1.90;93.60;;;;;;5051949;28;20591;-78
2021/03/17 08:58:06;;;;;;;17.88;10.23;;;1.80;95.30;;;;;;5050523;28;20060;-78
2021/03/17 09:00:54;;;;;;;16.30;12.82;;;2.20;93.60;;;;;;5032844;28;20041;-79
2021/03/17 09:03:32;;;;;;;13.63;9.77;;;2.30;92.20;;;;;;5039615;28;20139;-78
2021/03/17 09:06:24;;;;;;;19.63;12.38;;;3.30;90.60;;;;;;5039427;28;20395;-78
2021/03/17 09:09:04;;;;;;;14.73;10.43;;;4.60;83.10;;;;;;5035750;28;20045;-78
2021/03/17 09:11:32;;;;;;;16.38;12.73;;;3.50;88.30;;;;;;5046468;28;20407;-79
2021/03/17 09:14:05;;;;;;;14.60;10.57;;;2.30;91.20;;;;;;5047940;28;20060;-78
2021/03/17 09:17:09;;;;;;;19.08;13.05;;;2.00;94.10;;;;;;5053379;28;20041;-79
2021/03/17 09:19:54;;;;;;;17.17;9.25;;;1.60;94.20;;;;;;5029948;28;20044;-78
2021/03/17 09:22:35;;;;;;;15.95;10.57;;;1.60;95.00;;;;;;5009529;28;20065;-79
2021/03/17 09:25:21;;;;;;;14.43;10.30;;;1.50;94.30;;;;;;5049735;28;20687;-78
2021/03/17 09:27:55;;;;;;;13.65;9.77;;;1.60;94.80;;;;;;5043221;28;20033;-78
2021/03/17 09:30:25;;;;;;;15.00;11.82;;;1.90;93.70;;;;;;5053750;28;20414;-78
2021/03/17 09:33:03;;;;;;;22.63;12.10;;;1.80;94.10;;;;;;5068868;28;20040;-78
2021/03/17 09:35:35;;;;;;;20.73;11.25;;;1.60;94.50;;;;;;5071873;28;20049;-79
2021/03/17 09:38:09;;;;;;;18.77;12.63;;;1.60;94.90;;;;;;5072136;28;20052;-78
2021/03/17 09:40:47;;;;;;;15.45;9.95;;;1.80;94.10;;;;;;5063718;28;20041;-78
2021/03/17 09:43:45;;;;;;;15.65;10.88;;;2.00;92.70;;;;;;5053639;28;20407;-78
2021/03/17 09:46:28;;;;;;;22.75;11.23;;;2.40;94.70;;;;;;4982773;28;20059;-78
2021/03/17 09:49:08;;;;;;;12.70;11.18;;;2.40;94.60;;;;;;5056256;28;20078;-79
2021/03/17 09:52:09;;;;;;;15.90;11.90;;;2.30;92.50;;;;;;5067798;28;20797;-80
2021/03/17 09:54:37;;;;;;;18.20;10.13;;;2.30;92.60;;;;;;5058935;28;20056;-81
2021/03/17 09:57:10;;;;;;;15.10;10.40;;;2.40;93.00;;;;;;5057060;28;20498;-81
2021/03/17 09:59:41;;;;;;;15.90;9.77;;;2.60;91.80;;;;;;5061451;28;20040;-82
2021/03/17 10:02:16;;;;;;;12.82;9.75;;;2.30;92.20;;;;;;5074741;28;20055;-81
2021/03/17 10:04:49;;;;;;;10.98;8.88;;;2.10;92.90;;;;;;5074330;28;20040;-81
2021/03/17 10:07:28;;;;;;;21.90;10.73;;;2.00;91.40;;;;;;5038363;28;20056;-79
2021/03/17 10:09:57;;;;;;;15.07;13.02;;;2.20;92.60;;;;;;5037804;28;20052;-79
2021/03/17 10:12:27;;;;;;;13.88;10.73;;;2.20;90.60;;;;;;5054118;28;20036;-80
2021/03/17 10:15:08;;;;;;;23.92;11.35;;;2.20;92.40;;;;;;5073372;28;20048;-78
2021/03/17 10:17:36;;;;;;;11.18;7.95;;;2.30;92.50;;;;;;5071082;28;20059;-79
2021/03/17 10:20:15;;;;;;;16.30;9.27;;;2.50;91.30;;;;;;5072560;28;20506;-78
2021/03/17 10:22:45;;;;;;;13.57;8.77;;;2.60;91.20;;;;;;5072178;28;20483;-78
2021/03/17 10:25:15;;;;;;;17.98;9.10;;;2.80;91.00;;;;;;5072508;28;20044;-78
2021/03/17 10:27:49;;;;;;;14.05;7.85;;;2.70;92.00;;;;;;5072116;28;20383;-79
2021/03/17 10:30:18;;;;;;;8.98;7.20;;;2.70;90.60;;;;;;5056187;28;20483;-80
2021/03/17 10:32:51;;;;;;;15.90;11.20;;;2.70;90.70;;;;;;5054175;28;20399;-78
2021/03/17 10:35:19;;;;;;;11.60;8.82;;;2.50;90.20;;;;;;5072539;28;20052;-78
2021/03/17 10:37:50;;;;;;;9.95;7.55;;;2.40;91.90;;;;;;5073389;28;20041;-82
2021/03/17 10:40:21;;;;;;;12.00;9.25;;;2.40;92.80;;;;;;5077200;28;20040;-82
2021/03/17 10:42:55;;;;;;;20.30;13.02;;;2.20;94.10;;;;;;5077048;28;20059;-84
2021/03/17 10:45:44;;;;;;;17.90;11.23;;;2.00;93.40;;;;;;5087332;28;20044;-82
2021/03/17 10:48:21;;;;;;;17.90;10.60;;;1.60;95.10;;;;;;5073418;28;20041;-82
2021/03/17 10:50:50;;;;;;;14.52;10.07;;;1.50;95.80;;;;;;5073168;28;20055;-83
2021/03/17 10:53:29;;;;;;;8.02;7.03;;;1.40;97.50;;;;;;5055925;28;20049;-82
2021/03/17 10:56:00;;;;;;;11.05;9.32;;;0.90;97.90;;;;;;5054987;28;20040;-86
2021/03/17 10:58:30;;;;;;;14.00;6.65;;;0.10;97.90;;;;;;5039935;28;20055;-80
2021/03/17 11:01:02;;;;;;;7.53;5.18;;;-0.10;96.90;;;;;;5054173;28;20045;-78
2021/03/17 11:03:35;;;;;;;6.45;4.43;;;-0.20;98.00;;;;;;5071784;28;20047;-77
2021/03/17 11:06:15;;;;;;;7.00;5.03;;;-0.10;98.60;;;;;;5071944;28;20044;-78
2021/03/17 11:08:46;;;;;;;5.47;4.60;;;0.10;98.40;;;;;;5054071;28;20494;-78
2021/03/17 11:11:13;;;;;;;5.68;4.93;;;0.30;98.40;;;;;;5054350;28;20051;-79
2021/03/17 11:13:48;;;;;;;7.63;4.28;;;0.50;98.00;;;;;;5070701;28;20040;-78
2021/03/17 11:16:29;;;;;;;4.28;3.55;;;0.70;97.50;;;;;;5071966;28;20035;-78
2021/03/17 11:18:59;;;;;;;6.00;5.05;;;1.00;96.40;;;;;;5057268;28;20048;-79
2021/03/17 11:21:35;;;;;;;5.22;4.72;;;1.30;97.00;;;;;;5034198;28;20052;-79
2021/03/17 11:24:05;;;;;;;7.22;4.30;;;1.70;94.80;;;;;;5049760;28;20045;-79
2021/03/17 11:26:38;;;;;;;8.50;4.90;;;1.90;94.90;;;;;;5051145;28;20727;-79
2021/03/17 11:29:17;;;;;;;3.67;3.28;;;2.10;95.60;;;;;;5050337;28;20048;-78
2021/03/17 11:31:46;;;;;;;6.10;4.32;;;2.30;93.00;;;;;;5050690;28;20041;-79
2021/03/17 11:34:16;;;;;;;4.80;4.25;;;2.30;93.60;;;;;;5051984;28;20389;-78
2021/03/17 11:36:45;;;;;;;6.05;4.70;;;2.40;95.30;;;;;;5050355;28;20045;-80
2021/03/17 11:39:16;;;;;;;11.60;7.05;;;2.50;93.90;;;;;;5051077;28;20049;-78
2021/03/17 11:41:49;;;;;;;9.23;7.95;;;2.50;93.90;;;;;;5051159;28;20033;-78
2021/03/17 11:44:19;;;;;;;8.25;7.45;;;2.60;93.10;;;;;;5050298;28;20498;-79
2021/03/17 11:46:47;;;;;;;7.50;6.60;;;3.20;94.70;;;;;;5047815;28;20064;-81
2021/03/17 11:49:16;;;;;;;9.15;6.80;;;3.30;89.40;;;;;;5033125;28;20510;-82
2021/03/17 11:51:45;;;;;;;9.60;7.35;;;3.30;85.40;;;;;;5063425;28;20045;-81
2021/03/17 11:54:16;;;;;;;8.38;6.45;;;3.30;89.90;;;;;;5072911;28;20048;-81
2021/03/17 11:56:44;;;;;;;12.00;7.68;;;2.90;89.80;;;;;;5075464;28;20055;-80
2021/03/17 11:59:12;;;;;;;8.50;6.65;;;3.30;91.80;;;;;;5052514;28;20490;-79
2021/03/17 12:01:39;;;;;;;7.25;4.65;;;3.20;89.00;;;;;;5049741;28;20060;-80
2021/03/17 12:04:07;;;;;;;12.18;6.03;;;3.10;87.50;;;;;;5059234;28;20040;-80
2021/03/17 12:06:35;;;;;;;11.10;7.65;;;2.70;85.90;;;;;;5071337;28;20048;-79
2021/03/17 12:09:05;;;;;;;9.95;6.88;;;2.60;85.30;;;;;;5037371;28;20599;-81
2021/03/17 12:11:35;;;;;;;10.30;6.97;;;2.40;90.70;;;;;;5070453;28;20059;-81
2021/03/17 12:14:03;;;;;;;10.80;7.18;;;2.40;91.10;;;;;;5071822;28;20049;-81
2021/03/17 12:16:32;;;;;;;11.15;8.00;;;2.30;91.60;;;;;;5037446;28;20406;-81
2021/03/17 12:19:00;;;;;;;17.20;10.75;;;1.90;92.70;;;;;;5071031;28;20049;-82
2021/03/17 12:21:28;;;;;;;14.45;8.77;;;1.60;95.30;;;;;;5053828;28;20040;-80
2021/03/17 12:23:55;;;;;;;8.00;6.95;;;1.20;97.20;;;;;;5071444;28;20047;-81
2021/03/17 12:26:23;;;;;;;8.70;6.18;;;1.00;97.00;;;;;;5071935;28;20056;-80
2021/03/17 12:28:50;;;;;;;8.82;5.22;;;1.10;97.30;;;;;;5063246;28;20037;-80
2021/03/17 12:31:18;;;;;;;7.63;6.70;;;1.30;97.00;;;;;;5053126;28;20052;-82
2021/03/17 12:33:46;;;;;;;7.80;6.47;;;1.40;96.40;;;;;;5064437;28;20041;-81
2021/03/17 12:36:14;;;;;;;7.80;6.35;;;1.50;96.90;;;;;;5014072;28;20037;-79
2021/03/17 12:38:42;;;;;;;5.68;4.68;;;1.70;94.80;;;;;;5055921;28;20056;-81
2021/03/17 12:41:10;;;;;;;9.43;6.35;;;1.60;95.00;;;;;;5038084;28;20041;-82
2021/03/17 12:43:38;;;;;;;7.10;6.22;;;1.70;96.60;;;;;;5031699;28;20072;-81
2021/03/17 12:46:05;;;;;;;13.57;8.57;;;1.50;96.50;;;;;;5049754;28;20053;-80
2021/03/17 12:48:33;;;;;;;9.13;8.18;;;1.50;96.10;;;;;;5014641;28;20049;-82
2021/03/17 12:51:04;;;;;;;12.50;7.57;;;1.30;97.60;;;;;;4993686;28;20064;-81
2021/03/17 12:53:36;;;;;;;9.10;8.30;;;1.20;97.50;;;;;;5045569;28;20034;-82
2021/03/17 12:56:05;;;;;;;10.13;8.15;;;0.80;98.00;;;;;;5012414;28;20052;-81
2021/03/17 12:58:33;;;;;;;8.82;7.53;;;0.80;98.30;;;;;;5016682;28;20053;-81
2021/03/17 13:01:02;;;;;;;10.93;7.22;;;0.70;98.60;;;;;;5049337;28;20060;-82
2021/03/17 13:03:30;;;;;;;7.07;6.38;;;0.80;98.40;;;;;;5049284;28;20045;-83
2021/03/17 13:05:57;;;;;;;6.82;5.93;;;1.00;99.00;;;;;;5051803;28;20063;-81
2021/03/17 13:08:25;;;;;;;10.10;7.28;;;1.00;98.60;;;;;;5051401;28;20491;-83
2021/03/17 13:10:56;;;;;;;9.35;8.25;;;0.80;98.70;;;;;;5063388;28;20056;-82
2021/03/17 13:13:23;;;;;;;9.18;8.20;;;0.70;98.60;;;;;;5024731;28;20052;-81
2021/03/17 13:15:51;;;;;;;11.00;5.95;;;0.60;98.90;;;;;;5039223;28;20044;-80
2021/03/17 13:18:19;;;;;;;7.18;6.22;;;0.80;98.80;;;;;;5040924;28;20056;-81
2021/03/17 13:20:47;;;;;;;8.93;7.32;;;0.80;98.10;;;;;;5036651;28;20128;-80
2021/03/17 13:23:16;;;;;;;12.13;7.57;;;0.90;98.60;;;;;;5055044;28;20049;-81
2021/03/17 13:25:43;;;;;;;11.23;6.90;;;1.00;98.90;;;;;;5055288;28;20044;-82